createdAt,value
2022-07-28T00:00:08.711Z,1.10
2022-07-28T00:01:08.635Z,0.90
2022-07-28T00:02:08.716Z,1.10
2022-07-28T00:03:08.671Z,1.00
2022-07-28T00:04:08.614Z,0.90
2022-07-28T00:05:08.609Z,0.90
2022-07-28T00:06:08.598Z,0.70
2022-07-28T00:07:08.619Z,0.80
2022-07-28T00:08:08.580Z,0.80
2022-07-28T00:09:08.585Z,0.80
2022-07-28T00:10:08.568Z,0.80
2022-07-28T00:11:08.551Z,0.90
2022-07-28T00:12:08.579Z,0.80
2022-07-28T00:13:08.542Z,1.00
2022-07-28T00:14:08.540Z,0.80
2022-07-28T00:15:08.526Z,0.80
2022-07-28T00:16:08.538Z,0.90
2022-07-28T00:17:08.534Z,1.00
2022-07-28T00:18:08.501Z,0.80
2022-07-28T00:19:08.499Z,0.80
2022-07-28T00:20:08.489Z,1.00
2022-07-28T00:21:08.475Z,0.80
2022-07-28T00:22:08.502Z,0.80
2022-07-28T00:23:08.464Z,0.70
2022-07-28T00:24:08.456Z,0.80
2022-07-28T00:25:08.445Z,1.00
2022-07-28T00:26:08.447Z,0.90
2022-07-28T00:27:08.459Z,0.90
2022-07-28T00:28:08.427Z,0.90
2022-07-28T00:29:08.424Z,1.00
2022-07-28T00:30:08.414Z,1.00
2022-07-28T00:31:09.857Z,0.80
2022-07-28T00:32:08.494Z,0.80
2022-07-28T00:33:08.392Z,0.80
2022-07-28T00:34:08.378Z,1.10
2022-07-28T00:35:08.839Z,1.20
2022-07-28T00:36:10.302Z,0.80
2022-07-28T00:37:08.384Z,1.00
2022-07-28T00:38:09.348Z,1.00
2022-07-28T00:39:08.343Z,0.90
2022-07-28T00:40:08.337Z,0.90
2022-07-28T00:41:08.326Z,0.80
2022-07-28T00:42:08.346Z,0.80
2022-07-28T00:43:08.312Z,0.90
2022-07-28T00:44:08.305Z,0.90
2022-07-28T00:45:08.294Z,0.90
2022-07-28T00:46:08.415Z,1.10
2022-07-28T00:47:08.284Z,1.00
2022-07-28T00:48:08.309Z,0.90
2022-07-28T00:49:08.331Z,1.00
2022-07-28T00:50:08.257Z,1.00
2022-07-28T00:51:08.248Z,0.90
2022-07-28T00:52:08.241Z,1.00
2022-07-28T00:53:08.785Z,1.10
2022-07-28T00:54:08.230Z,1.00
2022-07-28T00:55:08.222Z,0.90
2022-07-28T00:56:08.211Z,0.90
2022-07-28T00:57:08.203Z,1.00
2022-07-28T00:58:08.218Z,1.00
2022-07-28T00:59:08.186Z,0.90
2022-07-28T01:00:08.182Z,0.80
2022-07-28T01:01:08.176Z,1.10
2022-07-28T01:02:08.309Z,1.00
2022-07-28T01:03:08.215Z,0.90
2022-07-28T01:04:08.154Z,1.10
2022-07-28T01:05:08.146Z,1.10
2022-07-28T01:06:08.133Z,1.00
2022-07-28T01:07:08.130Z,1.00
2022-07-28T01:08:08.145Z,0.90
2022-07-28T01:09:08.104Z,1.00
2022-07-28T01:10:08.102Z,1.00
2022-07-28T01:11:08.101Z,1.00
2022-07-28T01:12:08.089Z,1.10
2022-07-28T01:13:08.102Z,1.00
2022-07-28T01:14:08.077Z,1.20
2022-07-28T01:15:08.068Z,0.90
2022-07-28T01:16:08.073Z,1.10
2022-07-28T01:17:08.050Z,1.10
2022-07-28T01:18:39.978Z,1.40
2022-07-28T01:19:08.035Z,1.10
2022-07-28T01:20:08.038Z,1.00
2022-07-28T01:21:08.036Z,1.00
2022-07-28T01:22:08.059Z,1.10
2022-07-28T01:23:08.033Z,1.00
2022-07-28T01:24:07.998Z,1.10
2022-07-28T01:25:07.991Z,1.00
2022-07-28T01:26:07.985Z,1.00
2022-07-28T01:27:07.986Z,1.00
2022-07-28T01:28:07.996Z,1.20
2022-07-28T01:29:07.963Z,1.20
2022-07-28T01:30:07.959Z,1.00
2022-07-28T01:31:08.001Z,1.10
2022-07-28T01:32:07.931Z,1.10
2022-07-28T01:33:07.955Z,1.00
2022-07-28T01:34:07.924Z,1.20
2022-07-28T01:35:07.921Z,1.20
2022-07-28T01:36:07.908Z,1.40
2022-07-28T01:37:07.898Z,1.30
2022-07-28T01:38:07.918Z,1.20
2022-07-28T01:39:07.883Z,1.00
2022-07-28T01:40:07.876Z,1.10
2022-07-28T01:41:07.868Z,1.30
2022-07-28T01:42:07.860Z,1.10
2022-07-28T01:43:08.473Z,1.00
2022-07-28T01:44:07.843Z,1.10
2022-07-28T01:45:07.848Z,1.10
2022-07-28T01:46:07.850Z,0.90
2022-07-28T01:47:07.824Z,0.90
2022-07-28T01:48:07.844Z,1.00
2022-07-28T01:49:07.875Z,1.10
2022-07-28T01:50:07.803Z,1.00
2022-07-28T01:51:07.790Z,0.80
2022-07-28T01:52:07.780Z,1.30
2022-07-28T01:53:07.805Z,1.10
2022-07-28T01:54:07.765Z,1.00
2022-07-28T01:55:07.784Z,1.00
2022-07-28T01:56:07.752Z,0.80
2022-07-28T01:57:07.749Z,1.00
2022-07-28T01:58:07.770Z,1.00
2022-07-28T01:59:07.757Z,1.10
2022-07-28T02:00:07.726Z,1.10
2022-07-28T02:01:07.803Z,1.10
2022-07-28T02:02:07.816Z,1.00
2022-07-28T02:03:07.747Z,1.00
2022-07-28T02:04:07.691Z,0.80
2022-07-28T02:05:07.746Z,1.00
2022-07-28T02:06:07.684Z,1.10
2022-07-28T02:07:07.679Z,0.90
2022-07-28T02:08:07.697Z,0.90
2022-07-28T02:09:07.663Z,1.10
2022-07-28T02:10:07.660Z,1.20
2022-07-28T02:11:09.938Z,1.00
2022-07-28T02:12:07.639Z,1.30
2022-07-28T02:13:07.640Z,1.20
2022-07-28T02:14:07.648Z,1.30
2022-07-28T02:15:07.625Z,1.10
2022-07-28T02:16:07.717Z,1.30
2022-07-28T02:17:07.597Z,1.20
2022-07-28T02:18:07.587Z,1.30
2022-07-28T02:19:07.609Z,1.00
2022-07-28T02:20:07.577Z,1.00
2022-07-28T02:21:07.574Z,1.00
2022-07-28T02:22:07.572Z,1.10
2022-07-28T02:23:07.556Z,1.00
2022-07-28T02:24:07.582Z,1.00
2022-07-28T02:25:07.545Z,1.20
2022-07-28T02:26:07.537Z,1.00
2022-07-28T02:27:07.521Z,1.10
2022-07-28T02:28:07.518Z,1.10
2022-07-28T02:29:07.534Z,1.00
2022-07-28T02:30:07.504Z,1.30
2022-07-28T02:31:07.567Z,1.30
2022-07-28T02:32:27.248Z,1.20
2022-07-28T02:33:08.486Z,1.10
2022-07-28T02:34:07.728Z,1.20
2022-07-28T02:35:08.796Z,1.00
2022-07-28T02:36:07.458Z,1.10
2022-07-28T02:37:07.448Z,1.10
2022-07-28T02:38:07.450Z,1.20
2022-07-28T02:39:07.472Z,0.90
2022-07-28T02:40:07.443Z,1.30
2022-07-28T02:41:07.419Z,1.10
2022-07-28T02:42:07.412Z,1.30
2022-07-28T02:43:07.424Z,1.10
2022-07-28T02:44:07.419Z,1.20
2022-07-28T02:45:07.388Z,1.00
2022-07-28T02:46:07.420Z,1.20
2022-07-28T02:47:07.372Z,1.20
2022-07-28T02:48:07.363Z,1.20
2022-07-28T02:49:07.489Z,1.20
2022-07-28T02:50:07.351Z,1.20
2022-07-28T02:51:07.335Z,1.00
2022-07-28T02:52:07.332Z,1.20
2022-07-28T02:53:15.005Z,1.20
2022-07-28T02:54:08.346Z,1.20
2022-07-28T02:55:07.313Z,1.10
2022-07-28T02:56:07.295Z,1.20
2022-07-28T02:57:07.285Z,1.30
2022-07-28T02:58:07.287Z,1.20
2022-07-28T02:59:07.300Z,1.30
2022-07-28T03:00:07.274Z,1.20
2022-07-28T03:01:07.343Z,1.40
2022-07-28T03:02:07.259Z,1.40
2022-07-28T03:03:07.241Z,1.30
2022-07-28T03:04:07.303Z,1.60
2022-07-28T03:05:08.682Z,1.50
2022-07-28T03:06:07.215Z,1.30
2022-07-28T03:07:07.217Z,1.40
2022-07-28T03:08:07.213Z,1.50
2022-07-28T03:09:07.224Z,1.20
2022-07-28T03:10:07.193Z,1.50
2022-07-28T03:11:07.183Z,1.40
2022-07-28T03:12:07.178Z,1.30
2022-07-28T03:13:07.256Z,1.70
2022-07-28T03:14:07.190Z,1.40
2022-07-28T03:15:07.154Z,1.30
2022-07-28T03:16:07.147Z,1.40
2022-07-28T03:17:07.213Z,1.30
2022-07-28T03:18:07.135Z,1.40
2022-07-28T03:19:07.159Z,1.50
2022-07-28T03:20:07.123Z,1.30
2022-07-28T03:21:07.107Z,1.30
2022-07-28T03:22:10.449Z,1.10
2022-07-28T03:23:07.093Z,1.50
2022-07-28T03:24:07.084Z,1.50
2022-07-28T03:25:07.095Z,1.20
2022-07-28T03:26:07.069Z,1.10
2022-07-28T03:27:07.063Z,1.10
2022-07-28T03:28:07.055Z,1.30
2022-07-28T03:29:07.048Z,1.40
2022-07-28T03:30:07.072Z,1.50
2022-07-28T03:31:07.092Z,1.20
2022-07-28T03:32:07.026Z,1.40
2022-07-28T03:33:07.022Z,1.30
2022-07-28T03:34:07.010Z,1.30
2022-07-28T03:35:07.034Z,1.10
2022-07-28T03:36:07.000Z,1.20
2022-07-28T03:37:06.989Z,1.30
2022-07-28T03:38:06.981Z,1.50
2022-07-28T03:39:06.967Z,1.60
2022-07-28T03:40:06.994Z,1.70
2022-07-28T03:41:06.957Z,1.60
2022-07-28T03:42:06.951Z,1.30
2022-07-28T03:43:06.946Z,1.00
2022-07-28T03:44:06.946Z,1.50
2022-07-28T03:45:06.955Z,1.20
2022-07-28T03:46:12.701Z,1.20
2022-07-28T03:47:08.910Z,1.20
2022-07-28T03:48:06.900Z,1.20
2022-07-28T03:49:06.982Z,1.00
2022-07-28T03:50:06.913Z,1.40
2022-07-28T03:51:06.883Z,1.20
2022-07-28T03:52:06.866Z,1.10
2022-07-28T03:53:06.862Z,1.30
2022-07-28T03:54:06.861Z,1.10
2022-07-28T03:55:06.871Z,1.20
2022-07-28T03:56:06.841Z,1.20
2022-07-28T03:57:06.836Z,1.30
2022-07-28T03:58:06.826Z,1.30
2022-07-28T03:59:06.822Z,1.30
2022-07-28T04:00:09.702Z,1.80
2022-07-28T04:01:08.690Z,1.60
2022-07-28T04:02:06.814Z,1.40
2022-07-28T04:03:35.061Z,1.30
2022-07-28T04:04:07.782Z,1.50
2022-07-28T04:05:06.802Z,1.20
2022-07-28T04:06:06.752Z,1.20
2022-07-28T04:07:07.758Z,1.30
2022-07-28T04:08:06.745Z,1.20
2022-07-28T04:09:06.759Z,1.30
2022-07-28T04:10:06.771Z,1.30
2022-07-28T04:11:06.732Z,1.30
2022-07-28T04:12:06.716Z,1.10
2022-07-28T04:13:06.714Z,1.20
2022-07-28T04:14:06.712Z,1.30
2022-07-28T04:15:06.720Z,1.10
2022-07-28T04:16:06.687Z,1.20
2022-07-28T04:17:06.724Z,1.40
2022-07-28T04:18:06.669Z,1.30
2022-07-28T04:19:06.666Z,1.20
2022-07-28T04:20:06.683Z,1.60
2022-07-28T04:21:06.646Z,1.60
2022-07-28T04:22:06.645Z,1.30
2022-07-28T04:23:06.641Z,1.40
2022-07-28T04:24:06.636Z,1.50
2022-07-28T04:25:06.656Z,1.50
2022-07-28T04:26:06.619Z,1.30
2022-07-28T04:27:06.607Z,1.30
2022-07-28T04:28:06.598Z,1.20
2022-07-28T04:29:06.594Z,1.40
2022-07-28T04:30:06.614Z,1.20
2022-07-28T04:31:06.627Z,1.40
2022-07-28T04:32:06.568Z,1.50
2022-07-28T04:33:06.564Z,1.50
2022-07-28T04:34:06.592Z,1.60
2022-07-28T04:35:06.576Z,1.50
2022-07-28T04:36:06.535Z,1.30
2022-07-28T04:37:06.531Z,1.40
2022-07-28T04:38:06.523Z,1.30
2022-07-28T04:39:06.512Z,1.50
2022-07-28T04:40:06.511Z,1.40
2022-07-28T04:41:06.527Z,1.40
2022-07-28T04:42:06.507Z,1.10
2022-07-28T04:43:06.486Z,1.40
2022-07-28T04:44:06.481Z,1.50
2022-07-28T04:45:06.467Z,1.40
2022-07-28T04:46:06.526Z,1.40
2022-07-28T04:47:06.574Z,1.80
2022-07-28T04:48:06.444Z,1.50
2022-07-28T04:49:06.631Z,1.50
2022-07-28T04:50:06.429Z,1.30
2022-07-28T04:51:06.444Z,1.50
2022-07-28T04:52:06.417Z,1.60
2022-07-28T04:53:06.403Z,1.30
2022-07-28T04:54:06.401Z,1.50
2022-07-28T04:55:06.391Z,1.60
2022-07-28T04:56:06.409Z,1.80
2022-07-28T04:57:10.393Z,1.70
2022-07-28T04:58:07.364Z,1.50
2022-07-28T04:59:06.362Z,1.40
2022-07-28T05:00:06.354Z,1.50
2022-07-28T05:01:06.448Z,1.60
2022-07-28T05:02:06.342Z,1.90
2022-07-28T05:03:06.329Z,1.60
2022-07-28T05:04:06.380Z,1.90
2022-07-28T05:05:06.357Z,1.60
2022-07-28T05:06:06.332Z,1.80
2022-07-28T05:07:11.949Z,1.50
2022-07-28T05:08:07.293Z,1.50
2022-07-28T05:09:06.290Z,1.60
2022-07-28T05:10:06.274Z,1.60
2022-07-28T05:11:06.308Z,1.70
2022-07-28T05:12:06.271Z,1.60
2022-07-28T05:13:06.259Z,1.70
2022-07-28T05:14:06.253Z,1.60
2022-07-28T05:15:06.239Z,1.70
2022-07-28T05:16:06.302Z,1.70
2022-07-28T05:17:06.236Z,1.50
2022-07-28T05:18:06.241Z,1.50
2022-07-28T05:19:06.214Z,1.50
2022-07-28T05:20:06.229Z,1.50
2022-07-28T05:21:06.214Z,1.80
2022-07-28T05:22:07.186Z,1.70
2022-07-28T05:23:06.177Z,1.70
2022-07-28T05:24:06.168Z,1.50
2022-07-28T05:25:06.164Z,1.50
2022-07-28T05:26:06.186Z,1.40
2022-07-28T05:27:06.145Z,1.60
2022-07-28T05:28:06.174Z,1.60
2022-07-28T05:29:06.135Z,1.40
2022-07-28T05:30:06.125Z,1.60
2022-07-28T05:31:06.146Z,1.50
2022-07-28T05:32:16.679Z,1.60
2022-07-28T05:33:08.102Z,1.70
2022-07-28T05:34:06.103Z,1.80
2022-07-28T05:35:06.091Z,1.50
2022-07-28T05:36:06.106Z,1.70
2022-07-28T05:37:06.074Z,1.60
2022-07-28T05:38:10.528Z,1.80
2022-07-28T05:39:08.074Z,1.60
2022-07-28T05:40:06.047Z,1.70
2022-07-28T05:41:06.065Z,1.50
2022-07-28T05:42:06.055Z,1.50
2022-07-28T05:43:06.032Z,1.50
2022-07-28T05:44:06.025Z,1.80
2022-07-28T05:45:16.748Z,1.50
2022-07-28T05:46:07.096Z,1.40
2022-07-28T05:47:06.044Z,1.70
2022-07-28T05:48:05.996Z,1.60
2022-07-28T05:49:06.035Z,1.70
2022-07-28T05:50:05.980Z,1.50
2022-07-28T05:51:05.994Z,1.60
2022-07-28T05:52:05.963Z,1.60
2022-07-28T05:53:05.950Z,1.70
2022-07-28T05:54:05.943Z,1.60
2022-07-28T05:55:05.935Z,1.50
2022-07-28T05:56:05.959Z,1.70
2022-07-28T05:57:05.913Z,1.50
2022-07-28T05:58:05.907Z,1.60
2022-07-28T05:59:05.901Z,1.60
2022-07-28T06:00:05.893Z,1.70
2022-07-28T06:01:05.971Z,1.60
2022-07-28T06:02:05.941Z,1.60
2022-07-28T06:03:05.873Z,1.90
2022-07-28T06:04:27.256Z,1.50
2022-07-28T06:05:07.859Z,1.40
2022-07-28T06:06:14.604Z,1.60
2022-07-28T06:07:06.839Z,1.20
2022-07-28T06:08:05.829Z,1.40
2022-07-28T06:09:05.830Z,1.10
2022-07-28T06:10:05.813Z,1.40
2022-07-28T06:11:05.845Z,1.40
2022-07-28T06:12:05.806Z,1.20
2022-07-28T06:13:05.802Z,1.20
2022-07-28T06:14:05.793Z,1.20
2022-07-28T06:15:05.777Z,1.30
2022-07-28T06:16:09.664Z,1.30
2022-07-28T06:17:07.890Z,1.50
2022-07-28T06:18:05.755Z,1.20
2022-07-28T06:19:05.749Z,1.40
2022-07-28T06:20:05.734Z,1.40
2022-07-28T06:21:05.783Z,1.30
2022-07-28T06:22:05.741Z,1.30
2022-07-28T06:23:05.742Z,1.20
2022-07-28T06:24:05.714Z,1.30
2022-07-28T06:25:05.709Z,1.20
2022-07-28T06:26:05.695Z,1.20
2022-07-28T06:27:06.664Z,1.30
2022-07-28T06:28:05.681Z,1.20
2022-07-28T06:29:05.678Z,1.10
2022-07-28T06:30:05.661Z,1.40
2022-07-28T06:31:05.708Z,1.10
2022-07-28T06:32:05.739Z,1.50
2022-07-28T06:33:05.666Z,1.30
2022-07-28T06:34:05.638Z,1.30
2022-07-28T06:35:05.633Z,1.10
2022-07-28T06:36:05.623Z,1.20
2022-07-28T06:37:05.660Z,1.20
2022-07-28T06:38:05.606Z,1.30
2022-07-28T06:39:05.608Z,1.20
2022-07-28T06:40:05.600Z,1.20
2022-07-28T06:41:05.586Z,1.40
2022-07-28T06:42:05.608Z,1.30
2022-07-28T06:43:05.572Z,1.20
2022-07-28T06:44:05.562Z,1.40
2022-07-28T06:45:05.555Z,1.30
2022-07-28T06:46:05.553Z,1.20
2022-07-28T06:47:05.646Z,1.10
2022-07-28T06:48:05.528Z,1.20
2022-07-28T06:49:05.597Z,1.20
2022-07-28T06:50:05.520Z,0.90
2022-07-28T06:51:06.533Z,1.10
2022-07-28T06:52:05.530Z,1.10
2022-07-28T06:53:05.501Z,1.10
2022-07-28T06:54:10.741Z,1.00
2022-07-28T06:55:07.481Z,0.90
2022-07-28T06:56:05.518Z,1.10
2022-07-28T06:57:05.491Z,1.10
2022-07-28T06:58:05.462Z,0.80
2022-07-28T06:59:05.448Z,1.20
2022-07-28T07:00:05.442Z,1.40
2022-07-28T07:01:05.486Z,1.10
2022-07-28T07:02:05.446Z,1.50
2022-07-28T07:03:09.602Z,1.10
2022-07-28T07:04:05.471Z,1.20
2022-07-28T07:05:05.415Z,1.20
2022-07-28T07:06:05.398Z,1.00
2022-07-28T07:07:14.737Z,1.00
2022-07-28T07:08:06.377Z,1.30
2022-07-28T07:09:05.368Z,1.40
2022-07-28T07:10:05.369Z,1.10
2022-07-28T07:11:05.365Z,0.90
2022-07-28T07:12:05.380Z,0.90
2022-07-28T07:13:05.351Z,1.30
2022-07-28T07:14:05.345Z,1.00
2022-07-28T07:15:05.332Z,1.60
2022-07-28T07:16:05.400Z,1.10
2022-07-28T07:17:05.346Z,1.00
2022-07-28T07:18:39.276Z,1.10
2022-07-28T07:19:06.866Z,1.20
2022-07-28T07:20:05.290Z,1.10
2022-07-28T07:21:05.281Z,1.10
2022-07-28T07:22:05.304Z,1.50
2022-07-28T07:23:05.272Z,1.20
2022-07-28T07:24:05.267Z,1.20
2022-07-28T07:25:05.258Z,0.90
2022-07-28T07:26:05.252Z,1.00
2022-07-28T07:27:05.269Z,1.30
2022-07-28T07:28:05.237Z,1.30
2022-07-28T07:29:05.221Z,1.20
2022-07-28T07:30:05.221Z,1.00
2022-07-28T07:31:05.258Z,1.10
2022-07-28T07:32:10.366Z,1.30
2022-07-28T07:33:08.011Z,1.10
2022-07-28T07:34:05.194Z,1.40
2022-07-28T07:35:05.183Z,1.40
2022-07-28T07:36:05.179Z,1.60
2022-07-28T07:37:05.194Z,1.10
2022-07-28T07:38:05.170Z,1.20
2022-07-28T07:39:05.158Z,1.60
2022-07-28T07:40:05.143Z,1.20
2022-07-28T07:41:05.135Z,1.00
2022-07-28T07:42:05.156Z,1.00
2022-07-28T07:43:05.126Z,1.20
2022-07-28T07:44:05.112Z,1.20
2022-07-28T07:45:05.103Z,1.30
2022-07-28T07:46:05.144Z,1.00
2022-07-28T07:47:05.160Z,1.20
2022-07-28T07:48:05.079Z,1.20
2022-07-28T07:49:05.161Z,1.30
2022-07-28T07:50:05.069Z,1.00
2022-07-28T07:51:05.055Z,1.20
2022-07-28T07:52:05.079Z,1.00
2022-07-28T07:53:05.042Z,1.40
2022-07-28T07:54:05.041Z,1.10
2022-07-28T07:55:05.034Z,1.30
2022-07-28T07:56:05.017Z,1.20
2022-07-28T07:57:05.042Z,1.10
2022-07-28T07:58:05.007Z,1.20
2022-07-28T07:59:04.999Z,1.20
2022-07-28T08:00:04.996Z,1.50
2022-07-28T08:01:04.979Z,1.10
2022-07-28T08:02:05.062Z,1.10
2022-07-28T08:03:11.015Z,1.10
2022-07-28T08:04:05.981Z,1.00
2022-07-28T08:05:05.011Z,1.10
2022-07-28T08:06:04.946Z,1.40
2022-07-28T08:07:04.932Z,1.20
2022-07-28T08:08:05.098Z,1.40
2022-07-28T08:09:04.921Z,1.40
2022-07-28T08:10:04.911Z,1.10
2022-07-28T08:11:04.901Z,1.20
2022-07-28T08:12:04.899Z,1.00
2022-07-28T08:13:04.903Z,1.30
2022-07-28T08:14:05.881Z,1.10
2022-07-28T08:15:04.876Z,1.50
2022-07-28T08:16:04.911Z,1.30
2022-07-28T08:17:04.858Z,1.20
2022-07-28T08:18:04.873Z,1.20
2022-07-28T08:19:04.841Z,1.10
2022-07-28T08:20:04.831Z,1.10
2022-07-28T08:21:04.828Z,1.10
2022-07-28T08:22:04.816Z,1.40
2022-07-28T08:23:04.833Z,1.50
2022-07-28T08:24:04.804Z,1.10
2022-07-28T08:25:04.793Z,1.20
2022-07-28T08:26:04.789Z,1.40
2022-07-28T08:27:04.785Z,1.20
2022-07-28T08:28:04.798Z,1.10
2022-07-28T08:29:04.768Z,1.40
2022-07-28T08:30:04.777Z,1.30
2022-07-28T08:31:04.786Z,1.10
2022-07-28T08:32:04.743Z,1.10
2022-07-28T08:33:04.758Z,1.30
2022-07-28T08:34:04.730Z,1.30
2022-07-28T08:35:31.502Z,1.10
2022-07-28T08:36:06.707Z,1.30
2022-07-28T08:37:04.706Z,1.40
2022-07-28T08:38:04.721Z,1.30
2022-07-28T08:39:04.684Z,1.10
2022-07-28T08:40:04.675Z,1.10
2022-07-28T08:41:04.676Z,1.00
2022-07-28T08:42:04.670Z,1.20
2022-07-28T08:43:04.687Z,1.20
2022-07-28T08:44:04.651Z,1.40
2022-07-28T08:45:04.662Z,1.30
2022-07-28T08:46:04.733Z,1.20
2022-07-28T08:47:04.697Z,1.20
2022-07-28T08:48:09.095Z,1.40
2022-07-28T08:49:06.680Z,1.30
2022-07-28T08:50:04.605Z,1.30
2022-07-28T08:51:04.609Z,1.40
2022-07-28T08:52:04.586Z,1.20
2022-07-28T08:53:04.613Z,1.20
2022-07-28T08:54:04.579Z,1.30
2022-07-28T08:55:04.570Z,1.20
2022-07-28T08:56:04.561Z,1.60
2022-07-28T08:57:04.554Z,1.10
2022-07-28T08:58:04.579Z,1.20
2022-07-28T08:59:04.541Z,1.50
2022-07-28T09:00:04.529Z,1.20
2022-07-28T09:01:04.530Z,1.00
2022-07-28T09:02:04.545Z,1.40
2022-07-28T09:03:04.644Z,1.30
2022-07-28T09:04:04.503Z,1.10
2022-07-28T09:05:04.511Z,1.20
2022-07-28T09:06:04.503Z,1.20
2022-07-28T09:07:04.472Z,1.30
2022-07-28T09:08:04.493Z,1.60
2022-07-28T09:09:04.462Z,1.40
2022-07-28T09:10:04.459Z,1.20
2022-07-28T09:11:04.446Z,1.20
2022-07-28T09:12:04.441Z,1.10
2022-07-28T09:13:04.452Z,1.30
2022-07-28T09:14:04.414Z,1.40
2022-07-28T09:15:04.411Z,1.30
2022-07-28T09:16:04.457Z,1.40
2022-07-28T09:17:05.237Z,1.20
2022-07-28T09:18:04.418Z,1.60
2022-07-28T09:19:04.387Z,1.20
2022-07-28T09:20:10.403Z,1.20
2022-07-28T09:21:06.370Z,1.40
2022-07-28T09:22:04.360Z,1.60
2022-07-28T09:23:04.382Z,1.70
2022-07-28T09:24:04.345Z,1.40
2022-07-28T09:25:04.339Z,1.40
2022-07-28T09:26:09.967Z,1.40
2022-07-28T09:27:06.322Z,1.20
2022-07-28T09:28:04.313Z,1.50
2022-07-28T09:29:04.344Z,1.10
2022-07-28T09:30:04.304Z,1.50
2022-07-28T09:31:04.322Z,1.30
2022-07-28T09:32:04.344Z,1.40
2022-07-28T09:33:04.278Z,1.40
2022-07-28T09:34:04.298Z,1.50
2022-07-28T09:35:04.266Z,1.50
2022-07-28T09:36:04.263Z,1.30
2022-07-28T09:37:04.243Z,1.40
2022-07-28T09:38:04.244Z,1.40
2022-07-28T09:39:04.273Z,1.50
2022-07-28T09:40:04.311Z,1.10
2022-07-28T09:41:04.222Z,1.10
2022-07-28T09:42:04.215Z,1.40
2022-07-28T09:43:04.208Z,1.40
2022-07-28T09:44:04.226Z,1.50
2022-07-28T09:45:21.803Z,1.40
2022-07-28T09:46:06.349Z,1.30
2022-07-28T09:47:04.344Z,1.40
2022-07-28T09:48:04.292Z,1.50
2022-07-28T09:49:04.370Z,1.40
2022-07-28T09:50:04.198Z,1.60
2022-07-28T09:51:04.143Z,1.50
2022-07-28T09:52:04.152Z,1.40
2022-07-28T09:53:04.127Z,1.40
2022-07-28T09:54:04.138Z,1.40
2022-07-28T09:55:04.109Z,1.70
2022-07-28T09:56:04.103Z,1.50
2022-07-28T09:57:04.087Z,1.40
2022-07-28T09:58:04.084Z,1.50
2022-07-28T09:59:05.099Z,1.40
2022-07-28T10:00:04.068Z,1.50
2022-07-28T10:01:04.086Z,1.50
2022-07-28T10:02:04.099Z,1.40
2022-07-28T10:03:04.083Z,1.40
2022-07-28T10:04:04.089Z,1.50
2022-07-28T10:05:04.048Z,1.70
2022-07-28T10:06:04.022Z,1.10
2022-07-28T10:07:04.022Z,1.50
2022-07-28T10:08:04.012Z,1.40
2022-07-28T10:09:04.032Z,1.40
2022-07-28T10:10:03.987Z,1.60
2022-07-28T10:11:03.990Z,1.60
2022-07-28T10:12:03.968Z,1.50
2022-07-28T10:13:04.967Z,1.70
2022-07-28T10:14:03.984Z,1.50
2022-07-28T10:15:03.949Z,1.30
2022-07-28T10:16:03.967Z,1.30
2022-07-28T10:17:06.145Z,1.20
2022-07-28T10:18:04.929Z,1.30
2022-07-28T10:19:03.952Z,1.40
2022-07-28T10:20:03.918Z,1.10
2022-07-28T10:21:03.911Z,1.30
2022-07-28T10:22:03.901Z,1.40
2022-07-28T10:23:03.892Z,1.20
2022-07-28T10:24:03.916Z,1.50
2022-07-28T10:25:03.882Z,1.30
2022-07-28T10:26:03.874Z,1.40
2022-07-28T10:27:04.860Z,1.50
2022-07-28T10:28:03.859Z,1.50
2022-07-28T10:29:03.876Z,1.30
2022-07-28T10:30:03.838Z,1.30
2022-07-28T10:31:03.874Z,1.40
2022-07-28T10:32:03.826Z,1.20
2022-07-28T10:33:03.818Z,1.60
2022-07-28T10:34:03.813Z,1.40
2022-07-28T10:35:03.840Z,1.40
2022-07-28T10:36:03.793Z,1.30
2022-07-28T10:37:03.786Z,1.40
2022-07-28T10:38:03.783Z,1.40
2022-07-28T10:39:03.782Z,1.50
2022-07-28T10:40:09.382Z,1.50
2022-07-28T10:41:05.751Z,1.30
2022-07-28T10:42:03.754Z,1.30
2022-07-28T10:43:03.735Z,1.40
2022-07-28T10:44:03.728Z,1.20
2022-07-28T10:45:03.750Z,1.40
2022-07-28T10:46:06.014Z,1.40
2022-07-28T10:47:04.748Z,1.60
2022-07-28T10:48:03.700Z,1.50
2022-07-28T10:49:03.917Z,1.40
2022-07-28T10:50:03.712Z,1.50
2022-07-28T10:51:03.678Z,1.30
2022-07-28T10:52:08.653Z,1.30
2022-07-28T10:53:04.661Z,1.30
2022-07-28T10:54:03.659Z,1.50
2022-07-28T10:55:03.678Z,1.20
2022-07-28T10:56:03.641Z,1.30
2022-07-28T10:57:04.853Z,1.30
2022-07-28T10:58:11.727Z,1.50
2022-07-28T10:59:05.038Z,1.40
2022-07-28T11:00:12.764Z,1.60
2022-07-28T11:01:06.616Z,1.60
2022-07-28T11:02:04.693Z,1.40
2022-07-28T11:03:13.333Z,1.30
2022-07-28T11:04:04.582Z,1.40
2022-07-28T11:05:03.602Z,1.60
2022-07-28T11:06:03.563Z,1.30
2022-07-28T11:07:03.558Z,1.50
2022-07-28T11:08:03.554Z,1.30
2022-07-28T11:09:03.540Z,1.40
2022-07-28T11:10:03.561Z,1.50
2022-07-28T11:11:08.744Z,1.50
2022-07-28T11:12:04.519Z,1.40
2022-07-28T11:13:04.084Z,1.50
2022-07-28T11:14:03.504Z,1.40
2022-07-28T11:15:18.360Z,1.40
2022-07-28T11:16:04.491Z,1.70
2022-07-28T11:17:03.548Z,1.60
2022-07-28T11:18:03.479Z,1.60
2022-07-28T11:19:04.780Z,1.50
2022-07-28T11:20:30.542Z,1.40
2022-07-28T11:21:05.459Z,1.40
2022-07-28T11:22:03.456Z,1.30
2022-07-28T11:23:03.446Z,1.70
2022-07-28T11:24:03.439Z,1.50
2022-07-28T11:25:18.928Z,1.40
2022-07-28T11:26:04.447Z,1.30
2022-07-28T11:27:04.208Z,1.50
2022-07-28T11:28:04.417Z,1.50
2022-07-28T11:29:03.400Z,1.50
2022-07-28T11:30:03.398Z,1.40
2022-07-28T11:31:03.522Z,1.40
2022-07-28T11:32:03.381Z,1.50
2022-07-28T11:33:03.373Z,1.60
2022-07-28T11:34:03.364Z,1.60
2022-07-28T11:35:03.356Z,1.50
2022-07-28T11:36:03.380Z,1.70
2022-07-28T11:37:03.343Z,1.40
2022-07-28T11:38:03.642Z,1.50
2022-07-28T11:39:03.326Z,1.60
2022-07-28T11:40:03.321Z,1.60
2022-07-28T11:41:03.339Z,1.40
2022-07-28T11:42:03.313Z,1.30
2022-07-28T11:43:03.313Z,1.60
2022-07-28T11:44:03.292Z,1.40
2022-07-28T11:45:03.292Z,1.40
2022-07-28T11:46:03.343Z,1.40
2022-07-28T11:47:03.267Z,1.50
2022-07-28T11:48:03.268Z,1.60
2022-07-28T11:49:03.321Z,1.60
2022-07-28T11:50:03.246Z,1.50
2022-07-28T11:51:03.267Z,1.60
2022-07-28T11:52:03.230Z,1.40
2022-07-28T11:53:03.222Z,1.60
2022-07-28T11:54:03.220Z,1.40
2022-07-28T11:55:03.214Z,1.60
2022-07-28T11:56:03.403Z,1.70
2022-07-28T11:57:03.198Z,1.70
2022-07-28T11:58:03.185Z,1.50
2022-07-28T11:59:03.196Z,1.50
2022-07-28T12:00:03.175Z,1.40
2022-07-28T12:01:03.201Z,1.40
2022-07-28T12:02:03.282Z,1.50
2022-07-28T12:03:03.178Z,1.50
2022-07-28T12:04:03.145Z,1.60
2022-07-28T12:05:03.179Z,1.70
2022-07-28T12:06:03.154Z,1.70
2022-07-28T12:07:03.124Z,1.40
2022-07-28T12:08:03.137Z,1.60
2022-07-28T12:09:03.117Z,1.70
2022-07-28T12:10:03.117Z,1.60
2022-07-28T12:11:03.125Z,1.70
2022-07-28T12:12:03.092Z,1.40
2022-07-28T12:13:03.079Z,1.50
2022-07-28T12:14:03.093Z,1.70
2022-07-28T12:15:06.823Z,1.80
2022-07-28T12:16:04.102Z,1.60
2022-07-28T12:17:03.118Z,1.50
2022-07-28T12:18:03.042Z,1.40
2022-07-28T12:19:03.033Z,1.60
2022-07-28T12:20:03.035Z,1.80
2022-07-28T12:21:05.245Z,1.40
2022-07-28T12:22:04.015Z,1.50
2022-07-28T12:23:03.011Z,1.50
2022-07-28T12:24:03.000Z,1.40
2022-07-28T12:25:02.996Z,1.60
2022-07-28T12:26:02.987Z,1.70
2022-07-28T12:27:03.001Z,1.60
2022-07-28T12:28:02.972Z,1.70
2022-07-28T12:29:02.965Z,1.50
2022-07-28T12:30:03.979Z,2.00
2022-07-28T12:31:02.954Z,2.20
2022-07-28T12:32:03.045Z,1.80
2022-07-28T12:33:02.934Z,1.50
2022-07-28T12:34:02.934Z,1.60
2022-07-28T12:35:02.918Z,1.30
2022-07-28T12:36:02.922Z,1.50
2022-07-28T12:37:02.931Z,1.60
2022-07-28T12:38:02.897Z,1.30
2022-07-28T12:39:02.883Z,1.60
2022-07-28T12:40:02.876Z,1.70
2022-07-28T12:41:02.876Z,1.60
2022-07-28T12:42:02.896Z,1.50
2022-07-28T12:43:02.853Z,1.50
2022-07-28T12:44:11.467Z,1.20
2022-07-28T12:45:03.843Z,1.60
2022-07-28T12:46:02.919Z,1.50
2022-07-28T12:47:02.855Z,1.70
2022-07-28T12:48:02.820Z,1.50
2022-07-28T12:49:02.885Z,1.50
2022-07-28T12:50:06.902Z,1.80
2022-07-28T12:51:03.803Z,1.40
2022-07-28T12:52:02.810Z,1.40
2022-07-28T12:53:02.782Z,2.00
2022-07-28T12:54:02.769Z,2.30
2022-07-28T12:55:02.754Z,1.50
2022-07-28T12:56:03.758Z,1.50
2022-07-28T12:57:02.770Z,1.10
2022-07-28T12:58:02.736Z,1.70
2022-07-28T12:59:02.736Z,1.50
2022-07-28T13:00:02.725Z,1.50
2022-07-28T13:01:02.772Z,1.60
2022-07-28T13:02:02.845Z,1.50
2022-07-28T13:03:02.707Z,1.60
2022-07-28T13:04:02.691Z,1.60
2022-07-28T13:05:02.737Z,1.50
2022-07-28T13:06:02.687Z,1.50
2022-07-28T13:07:02.696Z,1.50
2022-07-28T13:08:02.663Z,1.50
2022-07-28T13:09:02.657Z,1.80
2022-07-28T13:10:02.647Z,1.60
2022-07-28T13:11:02.638Z,1.50
2022-07-28T13:12:02.660Z,1.50
2022-07-28T13:13:02.636Z,1.60
2022-07-28T13:14:02.622Z,1.40
2022-07-28T13:15:02.613Z,1.60
2022-07-28T13:16:02.669Z,1.60
2022-07-28T13:17:02.675Z,1.40
2022-07-28T13:18:02.598Z,1.60